Victory City, Texas
Current Conditions -  °F | °C
As of 6:53 PM on Monday 20 Oct 2014 (Local Time) from KTXK Reporting Station
Clear Clear  
Wind Chill: 19°   Ceiling: Unl
Heat Index: 19°   Visibility: 10mi
Dew Point: 14°   Wind: 0mph
Humidity: 75%   Direction: NA
Pressure: 30.03"   Gusts: NA
Location:  33.474°N, 94.2882°W
Report Text: KTXK 202353Z 00000KT 10SM CLR 19/14 A3003 RMK AO2 SLP169 T01890144 10244 20189 55002
Loading
Personal Weather Stations






























Interactive Weather Map
Tropical Storm Tracking
New forecast layout! Learn more

10-Day Weather Forecast

Advertisements
Track Severe Weather on mobile